sensor_id;sensor_type;location;lat;lon;timestamp;pressure;altitude;pressure_sealevel;temperature;humidity
19005;BME280;9635;52.078;8.648;2023-01-28T00:02:03;101710.09;;;0.96;76.09
19005;BME280;9635;52.078;8.648;2023-01-28T00:07:09;101715.41;;;0.95;75.88
19005;BME280;9635;52.078;8.648;2023-01-28T00:12:13;101717.84;;;1.04;76.70
19005;BME280;9635;52.078;8.648;2023-01-28T00:17:16;101720.59;;;0.99;75.59
19005;BME280;9635;52.078;8.648;2023-01-28T00:22:18;101724.00;;;1.06;76.79
19005;BME280;9635;52.078;8.648;2023-01-28T00:27:23;101718.75;;;1.03;76.01
19005;BME280;9635;52.078;8.648;2023-01-28T00:32:26;101713.56;;;0.98;76.10
19005;BME280;9635;52.078;8.648;2023-01-28T00:37:29;101718.91;;;0.97;75.98
19005;BME280;9635;52.078;8.648;2023-01-28T00:42:34;101731.28;;;0.93;73.83
19005;BME280;9635;52.078;8.648;2023-01-28T00:47:37;101726.97;;;0.89;72.33
19005;BME280;9635;52.078;8.648;2023-01-28T00:52:40;101729.81;;;0.80;70.54
19005;BME280;9635;52.078;8.648;2023-01-28T00:57:44;101723.53;;;0.86;72.75
19005;BME280;9635;52.078;8.648;2023-01-28T01:02:47;101723.47;;;0.87;73.18
19005;BME280;9635;52.078;8.648;2023-01-28T01:07:50;101718.22;;;0.86;74.23
19005;BME280;9635;52.078;8.648;2023-01-28T01:12:55;101712.84;;;0.90;74.91
19005;BME280;9635;52.078;8.648;2023-01-28T01:17:58;101710.97;;;0.95;75.92
19005;BME280;9635;52.078;8.648;2023-01-28T01:23:01;101713.69;;;0.92;75.10
19005;BME280;9635;52.078;8.648;2023-01-28T01:28:05;101704.16;;;0.82;71.82
19005;BME280;9635;52.078;8.648;2023-01-28T01:33:08;101719.94;;;0.88;74.90
19005;BME280;9635;52.078;8.648;2023-01-28T01:38:11;101719.97;;;0.87;73.96
19005;BME280;9635;52.078;8.648;2023-01-28T01:43:17;101713.69;;;0.92;75.84
19005;BME280;9635;52.078;8.648;2023-01-28T01:48:23;101711.88;;;0.94;76.67
19005;BME280;9635;52.078;8.648;2023-01-28T01:53:29;101721.63;;;0.92;76.13
19005;BME280;9635;52.078;8.648;2023-01-28T01:58:36;101722.50;;;0.93;75.92
19005;BME280;9635;52.078;8.648;2023-01-28T02:03:47;101730.47;;;0.91;75.55
19005;BME280;9635;52.078;8.648;2023-01-28T02:08:54;101721.22;;;0.67;71.98
19005;BME280;9635;52.078;8.648;2023-01-28T02:14:01;101728.97;;;0.78;73.08
19005;BME280;9635;52.078;8.648;2023-01-28T02:19:06;101740.59;;;0.69;71.65
19005;BME280;9635;52.078;8.648;2023-01-28T02:24:28;101731.59;;;0.78;73.87
19005;BME280;9635;52.078;8.648;2023-01-28T02:29:43;101742.13;;;0.79;73.76
19005;BME280;9635;52.078;8.648;2023-01-28T02:34:51;101744.91;;;0.73;73.31
19005;BME280;9635;52.078;8.648;2023-01-28T02:39:57;101743.09;;;0.77;73.55
19005;BME280;9635;52.078;8.648;2023-01-28T02:45:14;101732.53;;;0.74;73.03
19005;BME280;9635;52.078;8.648;2023-01-28T02:50:18;101728.16;;;0.73;74.15
19005;BME280;9635;52.078;8.648;2023-01-28T02:55:29;101728.91;;;0.79;75.72
19005;BME280;9635;52.078;8.648;2023-01-28T03:00:44;101722.69;;;0.82;76.38
19005;BME280;9635;52.078;8.648;2023-01-28T03:05:52;101737.69;;;0.83;76.29
19005;BME280;9635;52.078;8.648;2023-01-28T03:11:07;101733.34;;;0.79;74.63
19005;BME280;9635;52.078;8.648;2023-01-28T03:16:30;101726.31;;;0.78;75.16
19005;BME280;9635;52.078;8.648;2023-01-28T03:21:51;101713.22;;;0.70;73.24
19005;BME280;9635;52.078;8.648;2023-01-28T03:27:17;101716.78;;;0.68;74.15
19005;BME280;9635;52.078;8.648;2023-01-28T03:32:45;101721.09;;;0.75;76.15
19005;BME280;9635;52.078;8.648;2023-01-28T03:38:07;101707.72;;;0.81;77.08
19005;BME280;9635;52.078;8.648;2023-01-28T03:43:19;101719.25;;;0.78;75.58
19005;BME280;9635;52.078;8.648;2023-01-28T03:48:26;101724.53;;;0.80;77.18
19005;BME280;9635;52.078;8.648;2023-01-28T03:53:30;101720.97;;;0.79;77.46
19005;BME280;9635;52.078;8.648;2023-01-28T03:58:33;101717.47;;;0.79;77.49
19005;BME280;9635;52.078;8.648;2023-01-28T04:03:55;101721.94;;;0.77;77.21
19005;BME280;9635;52.078;8.648;2023-01-28T04:09:01;101729.88;;;0.77;77.40
19005;BME280;9635;52.078;8.648;2023-01-28T04:14:24;101727.31;;;0.71;74.58
19005;BME280;9635;52.078;8.648;2023-01-28T04:19:44;101737.00;;;0.72;75.42
19005;BME280;9635;52.078;8.648;2023-01-28T04:24:49;101736.97;;;0.75;76.18
19005;BME280;9635;52.078;8.648;2023-01-28T04:29:52;101740.47;;;0.75;77.04
19005;BME280;9635;52.078;8.648;2023-01-28T04:35:13;101763.41;;;0.75;77.06
19005;BME280;9635;52.078;8.648;2023-01-28T04:40:29;101760.84;;;0.70;76.57
19005;BME280;9635;52.078;8.648;2023-01-28T04:45:37;101758.19;;;0.72;77.03
19005;BME280;9635;52.078;8.648;2023-01-28T04:51:03;101758.19;;;0.70;77.13
19005;BME280;9635;52.078;8.648;2023-01-28T04:56:14;101752.97;;;0.66;75.22
19005;BME280;9635;52.078;8.648;2023-01-28T05:01:17;101752.09;;;0.67;76.13
19005;BME280;9635;52.078;8.648;2023-01-28T05:06:22;101755.53;;;0.70;77.71
19005;BME280;9635;52.078;8.648;2023-01-28T05:11:29;101746.22;;;0.49;72.60
19005;BME280;9635;52.078;8.648;2023-01-28T05:16:36;101747.34;;;0.36;69.60
19005;BME280;9635;52.078;8.648;2023-01-28T05:21:41;101758.69;;;0.41;72.64
19005;BME280;9635;52.078;8.648;2023-01-28T05:27:07;101758.69;;;0.41;71.39
19005;BME280;9635;52.078;8.648;2023-01-28T05:32:10;101759.53;;;0.43;73.98
19005;BME280;9635;52.078;8.648;2023-01-28T05:37:15;101757.75;;;0.45;74.84
19005;BME280;9635;52.078;8.648;2023-01-28T05:42:19;101759.50;;;0.46;74.74
19005;BME280;9635;52.078;8.648;2023-01-28T05:47:27;101766.56;;;0.46;74.49
19005;BME280;9635;52.078;8.648;2023-01-28T05:52:39;101771.78;;;0.50;76.04
19005;BME280;9635;52.078;8.648;2023-01-28T05:57:52;101762.94;;;0.51;76.16
19005;BME280;9635;52.078;8.648;2023-01-28T06:02:58;101763.84;;;0.50;76.39
19005;BME280;9635;52.078;8.648;2023-01-28T06:08:03;101763.84;;;0.49;75.07
19005;BME280;9635;52.078;8.648;2023-01-28T06:13:07;101754.19;;;0.46;76.59
19005;BME280;9635;52.078;8.648;2023-01-28T06:18:28;101763.03;;;0.47;76.78
19005;BME280;9635;52.078;8.648;2023-01-28T06:23:33;101763.91;;;0.47;76.77
19005;BME280;9635;52.078;8.648;2023-01-28T06:28:39;101764.78;;;0.46;76.20
19005;BME280;9635;52.078;8.648;2023-01-28T06:33:42;101766.69;;;0.38;74.05
19005;BME280;9635;52.078;8.648;2023-01-28T06:38:46;101769.25;;;0.43;74.40
19005;BME280;9635;52.078;8.648;2023-01-28T06:43:49;101756.09;;;0.38;73.62
19005;BME280;9635;52.078;8.648;2023-01-28T06:48:52;101765.00;;;0.34;74.47
19005;BME280;9635;52.078;8.648;2023-01-28T06:53:56;101762.22;;;0.42;74.71
19005;BME280;9635;52.078;8.648;2023-01-28T06:58:59;101766.56;;;0.46;76.28
19005;BME280;9635;52.078;8.648;2023-01-28T07:04:02;101763.16;;;0.37;75.14
19005;BME280;9635;52.078;8.648;2023-01-28T07:09:07;101769.31;;;0.38;75.75
19005;BME280;9635;52.078;8.648;2023-01-28T07:14:09;101780.81;;;0.37;75.64
19005;BME280;9635;52.078;8.648;2023-01-28T07:19:12;101791.84;;;0.62;73.54
19005;BME280;9635;52.078;8.648;2023-01-28T07:24:16;101785.84;;;1.02;71.11
19005;BME280;9635;52.078;8.648;2023-01-28T07:29:19;101772.06;;;1.30;69.20
19005;BME280;9635;52.078;8.648;2023-01-28T07:34:22;101774.28;;;1.49;69.93
19005;BME280;9635;52.078;8.648;2023-01-28T07:39:26;101782.16;;;1.53;70.93
19005;BME280;9635;52.078;8.648;2023-01-28T07:44:29;101780.66;;;1.41;73.39
19005;BME280;9635;52.078;8.648;2023-01-28T07:49:32;101793.31;;;1.25;74.59
19005;BME280;9635;52.078;8.648;2023-01-28T07:54:36;101787.44;;;1.11;74.12
19005;BME280;9635;52.078;8.648;2023-01-28T07:59:39;101787.56;;;1.04;73.96
19005;BME280;9635;52.078;8.648;2023-01-28T08:04:42;101807.81;;;1.05;75.18
19005;BME280;9635;52.078;8.648;2023-01-28T08:09:46;101807.09;;;0.97;73.83
19005;BME280;9635;52.078;8.648;2023-01-28T08:14:49;101809.25;;;0.75;72.16
19005;BME280;9635;52.078;8.648;2023-01-28T08:19:52;101814.22;;;0.92;74.86
19005;BME280;9635;52.078;8.648;2023-01-28T08:24:57;101814.06;;;1.01;75.09
19005;BME280;9635;52.078;8.648;2023-01-28T08:30:00;101835.34;;;0.95;70.41
19005;BME280;9635;52.078;8.648;2023-01-28T08:35:04;101832.13;;;0.78;69.13
19005;BME280;9635;52.078;8.648;2023-01-28T08:40:10;101842.25;;;1.04;71.12
19005;BME280;9635;52.078;8.648;2023-01-28T08:45:14;101856.19;;;1.14;71.49
19005;BME280;9635;52.078;8.648;2023-01-28T08:50:18;101860.81;;;1.02;69.72
19005;BME280;9635;52.078;8.648;2023-01-28T08:55:24;101872.06;;;1.14;71.60
19005;BME280;9635;52.078;8.648;2023-01-28T09:00:27;101883.78;;;1.00;66.70
19005;BME280;9635;52.078;8.648;2023-01-28T09:05:30;101889.97;;;0.99;65.63
19005;BME280;9635;52.078;8.648;2023-01-28T09:10:36;101892.31;;;1.16;71.72
19005;BME280;9635;52.078;8.648;2023-01-28T09:15:39;101899.28;;;1.22;70.88
19005;BME280;9635;52.078;8.648;2023-01-28T09:20:42;101901.13;;;1.17;67.62
19005;BME280;9635;52.078;8.648;2023-01-28T09:25:46;101909.03;;;1.20;69.08
19005;BME280;9635;52.078;8.648;2023-01-28T09:30:49;101909.25;;;1.08;68.64
19005;BME280;9635;52.078;8.648;2023-01-28T09:35:52;101915.81;;;0.85;66.17
19005;BME280;9635;52.078;8.648;2023-01-28T09:40:57;101916.81;;;0.76;66.79
19005;BME280;9635;52.078;8.648;2023-01-28T09:46:03;101921.91;;;0.89;70.00
19005;BME280;9635;52.078;8.648;2023-01-28T09:51:09;101928.72;;;1.03;68.84
19005;BME280;9635;52.078;8.648;2023-01-28T09:56:24;101934.94;;;1.01;66.86
19005;BME280;9635;52.078;8.648;2023-01-28T10:01:37;101929.22;;;0.71;65.33
19005;BME280;9635;52.078;8.648;2023-01-28T10:06:47;101918.13;;;1.03;67.57
19005;BME280;9635;52.078;8.648;2023-01-28T10:12:14;101908.13;;;1.21;65.38
19005;BME280;9635;52.078;8.648;2023-01-28T10:17:26;101905.44;;;0.70;61.98
19005;BME280;9635;52.078;8.648;2023-01-28T10:22:36;101902.88;;;1.18;65.70
19005;BME280;9635;52.078;8.648;2023-01-28T10:27:42;101907.19;;;1.23;65.28
19005;BME280;9635;52.078;8.648;2023-01-28T10:32:49;101914.41;;;1.62;67.51
19005;BME280;9635;52.078;8.648;2023-01-28T10:38:00;101905.25;;;1.80;70.20
19005;BME280;9635;52.078;8.648;2023-01-28T10:43:08;101914.34;;;1.66;64.87
19005;BME280;9635;52.078;8.648;2023-01-28T10:48:16;101932.34;;;0.98;60.56
19005;BME280;9635;52.078;8.648;2023-01-28T10:53:33;101932.78;;;1.24;65.11
19005;BME280;9635;52.078;8.648;2023-01-28T10:58:53;101927.25;;;1.37;65.44
19005;BME280;9635;52.078;8.648;2023-01-28T11:03:58;101920.34;;;1.30;62.82
19005;BME280;9635;52.078;8.648;2023-01-28T11:09:02;101929.06;;;1.35;66.18
19005;BME280;9635;52.078;8.648;2023-01-28T11:14:19;101925.72;;;1.23;63.13
19005;BME280;9635;52.078;8.648;2023-01-28T11:19:28;101920.38;;;0.74;60.98
19005;BME280;9635;52.078;8.648;2023-01-28T11:24:33;101918.41;;;0.88;59.90
19005;BME280;9635;52.078;8.648;2023-01-28T11:29:38;101917.75;;;1.23;61.21
19005;BME280;9635;52.078;8.648;2023-01-28T11:34:48;101894.91;;;1.21;61.65
19005;BME280;9635;52.078;8.648;2023-01-28T11:40:02;101905.50;;;1.21;59.19
19005;BME280;9635;52.078;8.648;2023-01-28T11:45:15;101881.59;;;4.45;62.55
19005;BME280;9635;52.078;8.648;2023-01-28T11:50:24;101864.06;;;6.60;56.87
19005;BME280;9635;52.078;8.648;2023-01-28T11:55:39;101865.25;;;6.97;44.55
19005;BME280;9635;52.078;8.648;2023-01-28T12:00:48;101850.16;;;8.14;46.98
19005;BME280;9635;52.078;8.648;2023-01-28T12:11:38;101847.28;;;9.09;51.84
19005;BME280;9635;52.078;8.648;2023-01-28T12:17:15;101828.19;;;8.63;49.18
19005;BME280;9635;52.078;8.648;2023-01-28T12:22:38;101819.13;;;7.72;41.74
19005;BME280;9635;52.078;8.648;2023-01-28T12:27:50;101772.97;;;6.88;43.08
19005;BME280;9635;52.078;8.648;2023-01-28T12:38:41;101753.41;;;7.08;45.67
19005;BME280;9635;52.078;8.648;2023-01-28T12:43:50;101726.00;;;6.20;45.27
19005;BME280;9635;52.078;8.648;2023-01-28T12:49:00;101729.91;;;5.67;48.59
19005;BME280;9635;52.078;8.648;2023-01-28T12:54:11;101746.03;;;3.26;45.24
19005;BME280;9635;52.078;8.648;2023-01-28T12:59:21;101762.75;;;4.44;50.16
19005;BME280;9635;52.078;8.648;2023-01-28T13:04:33;101741.47;;;5.44;44.07
19005;BME280;9635;52.078;8.648;2023-01-28T13:09:46;101733.53;;;7.53;46.63
19005;BME280;9635;52.078;8.648;2023-01-28T13:14:50;101747.34;;;7.82;42.92
19005;BME280;9635;52.078;8.648;2023-01-28T13:19:56;101757.09;;;5.77;43.21
19005;BME280;9635;52.078;8.648;2023-01-28T13:25:17;101783.75;;;4.26;47.24
19005;BME280;9635;52.078;8.648;2023-01-28T13:30:23;101778.16;;;6.06;47.18
19005;BME280;9635;52.078;8.648;2023-01-28T13:35:35;101775.56;;;6.47;45.82
19005;BME280;9635;52.078;8.648;2023-01-28T13:40:39;101790.53;;;7.14;43.92
19005;BME280;9635;52.078;8.648;2023-01-28T13:45:54;101799.56;;;6.27;41.93
19005;BME280;9635;52.078;8.648;2023-01-28T13:50:59;101812.56;;;4.67;45.41
19005;BME280;9635;52.078;8.648;2023-01-28T13:56:07;101788.59;;;6.12;45.53
19005;BME280;9635;52.078;8.648;2023-01-28T14:01:30;101778.16;;;5.84;44.67
19005;BME280;9635;52.078;8.648;2023-01-28T14:06:52;101759.69;;;6.44;43.32
19005;BME280;9635;52.078;8.648;2023-01-28T14:17:43;101720.25;;;4.92;44.59
19005;BME280;9635;52.078;8.648;2023-01-28T14:22:49;101691.84;;;4.43;45.39
19005;BME280;9635;52.078;8.648;2023-01-28T14:27:52;101708.16;;;4.58;45.17
19005;BME280;9635;52.078;8.648;2023-01-28T14:32:56;101713.53;;;3.18;47.67
19005;BME280;9635;52.078;8.648;2023-01-28T14:38:07;101738.00;;;3.59;47.27
19005;BME280;9635;52.078;8.648;2023-01-28T14:43:15;101740.41;;;3.66;47.46
19005;BME280;9635;52.078;8.648;2023-01-28T14:48:23;101775.38;;;4.90;47.22
19005;BME280;9635;52.078;8.648;2023-01-28T14:59:15;101765.03;;;3.73;46.74
19005;BME280;9635;52.078;8.648;2023-01-28T15:04:22;101775.69;;;2.42;50.08
19005;BME280;9635;52.078;8.648;2023-01-28T15:09:27;101766.84;;;3.41;49.43
19005;BME280;9635;52.078;8.648;2023-01-28T15:14:31;101764.50;;;4.18;47.60
19005;BME280;9635;52.078;8.648;2023-01-28T15:19:35;101767.38;;;3.54;47.53
19005;BME280;9635;52.078;8.648;2023-01-28T15:24:41;101772.72;;;3.53;48.85
19005;BME280;9635;52.078;8.648;2023-01-28T15:29:51;101768.69;;;3.69;48.78
19005;BME280;9635;52.078;8.648;2023-01-28T15:34:54;101796.09;;;3.71;49.33
19005;BME280;9635;52.078;8.648;2023-01-28T15:40:04;101802.44;;;3.36;50.57
19005;BME280;9635;52.078;8.648;2023-01-28T15:45:14;101811.31;;;2.32;53.28
19005;BME280;9635;52.078;8.648;2023-01-28T15:50:20;101808.38;;;2.05;54.26
19005;BME280;9635;52.078;8.648;2023-01-28T15:55:32;101812.28;;;1.89;55.22
19005;BME280;9635;52.078;8.648;2023-01-28T16:00:37;101826.84;;;1.69;56.80
19005;BME280;9635;52.078;8.648;2023-01-28T16:05:41;101828.25;;;1.44;57.18
19005;BME280;9635;52.078;8.648;2023-01-28T16:10:52;101827.28;;;1.01;57.72
19005;BME280;9635;52.078;8.648;2023-01-28T16:15:56;101836.44;;;0.82;59.66
19005;BME280;9635;52.078;8.648;2023-01-28T16:21:00;101857.66;;;0.80;60.37
19005;BME280;9635;52.078;8.648;2023-01-28T16:26:06;101866.88;;;0.56;60.84
19005;BME280;9635;52.078;8.648;2023-01-28T16:31:22;101845.69;;;-0.01;61.78
19005;BME280;9635;52.078;8.648;2023-01-28T16:36:25;101827.78;;;0.20;60.69
19005;BME280;9635;52.078;8.648;2023-01-28T16:41:32;101814.41;;;0.30;60.11
19005;BME280;9635;52.078;8.648;2023-01-28T16:46:36;101792.22;;;0.39;59.32
19005;BME280;9635;52.078;8.648;2023-01-28T16:51:40;101793.38;;;0.21;59.53
19005;BME280;9635;52.078;8.648;2023-01-28T16:56:45;101799.59;;;0.19;59.99
19005;BME280;9635;52.078;8.648;2023-01-28T17:01:48;101797.69;;;0.27;59.84
19005;BME280;9635;52.078;8.648;2023-01-28T17:06:51;101804.22;;;0.03;59.94
19005;BME280;9635;52.078;8.648;2023-01-28T17:11:55;101804.31;;;-0.03;60.28
19005;BME280;9635;52.078;8.648;2023-01-28T17:16:58;101807.06;;;-0.11;60.83
19005;BME280;9635;52.078;8.648;2023-01-28T17:22:01;101830.69;;;0.01;60.77
19005;BME280;9635;52.078;8.648;2023-01-28T17:27:05;101832.50;;;-0.02;60.58
19005;BME280;9635;52.078;8.648;2023-01-28T17:32:08;101834.56;;;-0.24;61.20
19005;BME280;9635;52.078;8.648;2023-01-28T17:37:11;101839.03;;;-0.30;61.32
19005;BME280;9635;52.078;8.648;2023-01-28T17:42:15;101830.28;;;-0.35;61.50
19005;BME280;9635;52.078;8.648;2023-01-28T17:47:18;101818.94;;;-0.44;61.77
19005;BME280;9635;52.078;8.648;2023-01-28T17:52:21;101825.81;;;-0.31;61.98
19005;BME280;9635;52.078;8.648;2023-01-28T17:57:26;101834.63;;;-0.29;61.78
19005;BME280;9635;52.078;8.648;2023-01-28T18:02:29;101842.63;;;-0.37;61.51
19005;BME280;9635;52.078;8.648;2023-01-28T18:07:32;101844.44;;;-0.42;61.88
19005;BME280;9635;52.078;8.648;2023-01-28T18:12:36;101851.56;;;-0.48;62.32
19005;BME280;9635;52.078;8.648;2023-01-28T18:17:39;101863.03;;;-0.51;62.40
19005;BME280;9635;52.078;8.648;2023-01-28T18:22:42;101856.00;;;-0.51;62.46
19005;BME280;9635;52.078;8.648;2023-01-28T18:27:46;101867.47;;;-0.52;62.67
19005;BME280;9635;52.078;8.648;2023-01-28T18:32:49;101881.53;;;-0.53;62.76
19005;BME280;9635;52.078;8.648;2023-01-28T18:37:52;101879.03;;;-0.65;63.15
19005;BME280;9635;52.078;8.648;2023-01-28T18:42:57;101883.47;;;-0.70;63.31
19005;BME280;9635;52.078;8.648;2023-01-28T18:48:01;101873.75;;;-0.66;63.39
19005;BME280;9635;52.078;8.648;2023-01-28T18:53:03;101873.72;;;-0.63;63.33
19005;BME280;9635;52.078;8.648;2023-01-28T18:58:08;101872.97;;;-0.75;63.50
19005;BME280;9635;52.078;8.648;2023-01-28T19:03:11;101882.63;;;-0.72;63.51
19005;BME280;9635;52.078;8.648;2023-01-28T19:08:13;101882.53;;;-0.63;63.17
19005;BME280;9635;52.078;8.648;2023-01-28T19:13:17;101900.16;;;-0.66;63.38
19005;BME280;9635;52.078;8.648;2023-01-28T19:18:20;101896.75;;;-0.78;63.63
19005;BME280;9635;52.078;8.648;2023-01-28T19:23:23;101899.44;;;-0.81;63.66
19005;BME280;9635;52.078;8.648;2023-01-28T19:28:30;101915.25;;;-0.79;63.60
19005;BME280;9635;52.078;8.648;2023-01-28T19:33:34;101906.53;;;-0.87;63.54
19005;BME280;9635;52.078;8.648;2023-01-28T19:38:37;101899.50;;;-0.87;64.15
19005;BME280;9635;52.078;8.648;2023-01-28T19:43:41;101902.19;;;-0.95;63.96
19005;BME280;9635;52.078;8.648;2023-01-28T19:48:44;101894.28;;;-0.96;63.93
19005;BME280;9635;52.078;8.648;2023-01-28T19:53:49;101882.91;;;-1.04;64.40
19005;BME280;9635;52.078;8.648;2023-01-28T19:58:54;101883.84;;;-1.08;64.40
19005;BME280;9635;52.078;8.648;2023-01-28T20:03:58;101881.22;;;-1.08;64.73
19005;BME280;9635;52.078;8.648;2023-01-28T20:09:03;101872.41;;;-1.07;64.62
19005;BME280;9635;52.078;8.648;2023-01-28T20:14:08;101869.72;;;-1.01;64.73
19005;BME280;9635;52.078;8.648;2023-01-28T20:19:13;101865.41;;;-1.13;64.63
19005;BME280;9635;52.078;8.648;2023-01-28T20:24:16;101853.16;;;-1.19;65.16
19005;BME280;9635;52.078;8.648;2023-01-28T20:29:20;101866.41;;;-1.25;64.98
19005;BME280;9635;52.078;8.648;2023-01-28T20:34:23;101856.75;;;-1.26;65.34
19005;BME280;9635;52.078;8.648;2023-01-28T20:39:26;101855.94;;;-1.34;65.36
19005;BME280;9635;52.078;8.648;2023-01-28T20:44:30;101840.94;;;-1.27;64.90
19005;BME280;9635;52.078;8.648;2023-01-28T20:49:33;101846.19;;;-1.24;65.05
19005;BME280;9635;52.078;8.648;2023-01-28T20:54:36;101852.34;;;-1.25;64.51
19005;BME280;9635;52.078;8.648;2023-01-28T20:59:40;101852.44;;;-1.37;65.13
19005;BME280;9635;52.078;8.648;2023-01-28T21:04:42;101847.13;;;-1.33;65.37
19005;BME280;9635;52.078;8.648;2023-01-28T21:09:45;101859.41;;;-1.32;65.21
19005;BME280;9635;52.078;8.648;2023-01-28T21:14:49;101849.78;;;-1.31;65.27
19005;BME280;9635;52.078;8.648;2023-01-28T21:19:52;101856.03;;;-1.45;65.67
19005;BME280;9635;52.078;8.648;2023-01-28T21:24:54;101845.31;;;-1.23;64.95
19005;BME280;9635;52.078;8.648;2023-01-28T21:29:59;101847.88;;;-1.19;65.13
19005;BME280;9635;52.078;8.648;2023-01-28T21:35:01;101850.47;;;-1.11;64.69
19005;BME280;9635;52.078;8.648;2023-01-28T21:40:05;101849.50;;;-1.02;64.43
19005;BME280;9635;52.078;8.648;2023-01-28T21:45:10;101848.56;;;-0.95;64.17
19005;BME280;9635;52.078;8.648;2023-01-28T21:50:14;101838.00;;;-0.95;64.33
19005;BME280;9635;52.078;8.648;2023-01-28T21:55:18;101837.91;;;-0.86;64.20
19005;BME280;9635;52.078;8.648;2023-01-28T22:00:22;101835.19;;;-0.80;63.99
19005;BME280;9635;52.078;8.648;2023-01-28T22:05:25;101832.59;;;-0.83;63.66
19005;BME280;9635;52.078;8.648;2023-01-28T22:10:28;101832.63;;;-0.86;64.38
19005;BME280;9635;52.078;8.648;2023-01-28T22:15:32;101821.25;;;-0.91;64.46
19005;BME280;9635;52.078;8.648;2023-01-28T22:20:36;101826.06;;;-1.36;65.32
19005;BME280;9635;52.078;8.648;2023-01-28T22:25:38;101812.09;;;-1.44;66.18
19005;BME280;9635;52.078;8.648;2023-01-28T22:30:42;101814.53;;;-1.23;66.50
19005;BME280;9635;52.078;8.648;2023-01-28T22:41:17;101832.72;;;-0.95;65.82
19005;BME280;9635;52.078;8.648;2023-01-28T22:46:24;101822.38;;;-1.15;65.78
19005;BME280;9635;52.078;8.648;2023-01-28T22:51:28;101825.56;;;-0.82;65.33
19005;BME280;9635;52.078;8.648;2023-01-28T22:56:31;101812.34;;;-0.81;65.27
19005;BME280;9635;52.078;8.648;2023-01-28T23:01:35;101822.00;;;-0.80;65.35
19005;BME280;9635;52.078;8.648;2023-01-28T23:06:38;101821.72;;;-0.54;64.31
19005;BME280;9635;52.078;8.648;2023-01-28T23:11:41;101826.25;;;-0.65;64.78
19005;BME280;9635;52.078;8.648;2023-01-28T23:16:45;101820.25;;;-0.81;64.84
19005;BME280;9635;52.078;8.648;2023-01-28T23:22:11;101835.22;;;-0.81;65.31
19005;BME280;9635;52.078;8.648;2023-01-28T23:27:32;101836.91;;;-0.76;64.96
19005;BME280;9635;52.078;8.648;2023-01-28T23:32:36;101831.72;;;-0.82;65.04
19005;BME280;9635;52.078;8.648;2023-01-28T23:37:40;101820.78;;;-1.33;66.10
19005;BME280;9635;52.078;8.648;2023-01-28T23:42:46;101810.94;;;-1.12;65.58
19005;BME280;9635;52.078;8.648;2023-01-28T23:47:51;101817.78;;;-0.93;65.01
19005;BME280;9635;52.078;8.648;2023-01-28T23:52:53;101811.97;;;-1.32;65.78
19005;BME280;9635;52.078;8.648;2023-01-28T23:57:56;101813.63;;;-1.20;66.28
